sensor_id;sensor_type;location;lat;lon;timestamp;P1;durP1;ratioP1;P2;durP2;ratioP2
70532;SDS011;58088;51.186;17.130;2023-07-24T00:02:20;9.10;;;2.70;;
70532;SDS011;58088;51.186;17.130;2023-07-24T00:04:47;6.40;;;2.50;;
70532;SDS011;58088;51.186;17.130;2023-07-24T00:07:13;6.70;;;2.40;;
70532;SDS011;58088;51.186;17.130;2023-07-24T00:09:39;10.10;;;3.00;;
70532;SDS011;58088;51.186;17.130;2023-07-24T00:12:06;8.00;;;2.50;;
70532;SDS011;58088;51.186;17.130;2023-07-24T00:14:32;7.90;;;2.80;;
70532;SDS011;58088;51.186;17.130;2023-07-24T00:16:59;11.70;;;3.00;;
70532;SDS011;58088;51.186;17.130;2023-07-24T00:19:25;7.50;;;2.80;;
70532;SDS011;58088;51.186;17.130;2023-07-24T00:21:51;7.40;;;2.60;;
70532;SDS011;58088;51.186;17.130;2023-07-24T00:24:17;7.50;;;2.60;;
70532;SDS011;58088;51.186;17.130;2023-07-24T00:26:43;6.90;;;2.80;;
70532;SDS011;58088;51.186;17.130;2023-07-24T00:29:09;5.90;;;2.30;;
70532;SDS011;58088;51.186;17.130;2023-07-24T00:31:35;5.70;;;2.80;;
70532;SDS011;58088;51.186;17.130;2023-07-24T00:34:02;10.40;;;2.70;;
70532;SDS011;58088;51.186;17.130;2023-07-24T00:36:28;6.30;;;2.90;;
70532;SDS011;58088;51.186;17.130;2023-07-24T00:38:55;5.90;;;2.90;;
70532;SDS011;58088;51.186;17.130;2023-07-24T00:41:21;7.20;;;3.00;;
70532;SDS011;58088;51.186;17.130;2023-07-24T00:43:47;8.40;;;2.90;;
70532;SDS011;58088;51.186;17.130;2023-07-24T00:46:14;9.90;;;3.20;;
70532;SDS011;58088;51.186;17.130;2023-07-24T00:48:40;9.00;;;2.80;;
70532;SDS011;58088;51.186;17.130;2023-07-24T00:51:07;7.20;;;2.60;;
70532;SDS011;58088;51.186;17.130;2023-07-24T00:53:35;6.70;;;2.80;;
70532;SDS011;58088;51.186;17.130;2023-07-24T00:56:02;8.40;;;3.20;;
70532;SDS011;58088;51.186;17.130;2023-07-24T00:58:31;8.10;;;2.90;;
70532;SDS011;58088;51.186;17.130;2023-07-24T01:01:00;8.00;;;2.90;;
70532;SDS011;58088;51.186;17.130;2023-07-24T01:03:33;7.60;;;3.10;;
70532;SDS011;58088;51.186;17.130;2023-07-24T01:06:04;8.50;;;2.80;;
70532;SDS011;58088;51.186;17.130;2023-07-24T01:08:31;7.90;;;3.30;;
70532;SDS011;58088;51.186;17.130;2023-07-24T01:11:24;7.90;;;3.20;;
70532;SDS011;58088;51.186;17.130;2023-07-24T01:14:24;8.00;;;3.00;;
70532;SDS011;58088;51.186;17.130;2023-07-24T01:16:59;7.50;;;2.70;;
70532;SDS011;58088;51.186;17.130;2023-07-24T01:19:46;6.60;;;2.90;;
70532;SDS011;58088;51.186;17.130;2023-07-24T01:28:07;9.10;;;2.70;;
70532;SDS011;58088;51.186;17.130;2023-07-24T01:30:34;7.50;;;2.80;;
70532;SDS011;58088;51.186;17.130;2023-07-24T01:33:01;7.90;;;3.00;;
70532;SDS011;58088;51.186;17.130;2023-07-24T01:35:27;7.80;;;2.90;;
70532;SDS011;58088;51.186;17.130;2023-07-24T01:37:56;6.80;;;2.70;;
70532;SDS011;58088;51.186;17.130;2023-07-24T01:40:24;8.50;;;2.70;;
70532;SDS011;58088;51.186;17.130;2023-07-24T01:42:50;6.70;;;2.70;;
70532;SDS011;58088;51.186;17.130;2023-07-24T01:45:17;10.10;;;2.90;;
70532;SDS011;58088;51.186;17.130;2023-07-24T01:47:43;6.30;;;2.70;;
70532;SDS011;58088;51.186;17.130;2023-07-24T01:50:10;7.90;;;2.80;;
70532;SDS011;58088;51.186;17.130;2023-07-24T01:52:36;8.20;;;2.70;;
70532;SDS011;58088;51.186;17.130;2023-07-24T01:55:02;8.30;;;2.90;;
70532;SDS011;58088;51.186;17.130;2023-07-24T01:57:29;7.90;;;3.00;;
70532;SDS011;58088;51.186;17.130;2023-07-24T01:59:55;7.10;;;2.80;;
70532;SDS011;58088;51.186;17.130;2023-07-24T02:02:21;7.10;;;2.70;;
70532;SDS011;58088;51.186;17.130;2023-07-24T02:04:59;8.50;;;2.90;;
70532;SDS011;58088;51.186;17.130;2023-07-24T02:07:26;6.90;;;2.90;;
70532;SDS011;58088;51.186;17.130;2023-07-24T02:09:52;6.50;;;2.70;;
70532;SDS011;58088;51.186;17.130;2023-07-24T02:12:18;8.30;;;3.20;;
70532;SDS011;58088;51.186;17.130;2023-07-24T02:14:44;7.90;;;3.00;;
70532;SDS011;58088;51.186;17.130;2023-07-24T02:17:10;9.00;;;2.80;;
70532;SDS011;58088;51.186;17.130;2023-07-24T02:19:36;7.90;;;3.50;;
70532;SDS011;58088;51.186;17.130;2023-07-24T02:22:03;8.50;;;3.20;;
70532;SDS011;58088;51.186;17.130;2023-07-24T02:24:29;10.00;;;3.30;;
70532;SDS011;58088;51.186;17.130;2023-07-24T02:26:57;11.10;;;2.80;;
70532;SDS011;58088;51.186;17.130;2023-07-24T02:29:24;12.50;;;3.10;;
70532;SDS011;58088;51.186;17.130;2023-07-24T02:31:50;9.10;;;3.00;;
70532;SDS011;58088;51.186;17.130;2023-07-24T02:34:16;9.00;;;3.10;;
70532;SDS011;58088;51.186;17.130;2023-07-24T02:36:42;8.70;;;3.00;;
70532;SDS011;58088;51.186;17.130;2023-07-24T02:39:09;7.60;;;2.90;;
70532;SDS011;58088;51.186;17.130;2023-07-24T02:41:35;10.80;;;3.50;;
70532;SDS011;58088;51.186;17.130;2023-07-24T02:44:02;10.30;;;3.10;;
70532;SDS011;58088;51.186;17.130;2023-07-24T02:46:29;7.80;;;3.10;;
70532;SDS011;58088;51.186;17.130;2023-07-24T02:48:57;8.70;;;2.90;;
70532;SDS011;58088;51.186;17.130;2023-07-24T02:51:23;9.00;;;2.70;;
70532;SDS011;58088;51.186;17.130;2023-07-24T02:53:49;9.20;;;2.70;;
70532;SDS011;58088;51.186;17.130;2023-07-24T02:56:15;9.70;;;3.50;;
70532;SDS011;58088;51.186;17.130;2023-07-24T02:58:41;9.10;;;3.10;;
70532;SDS011;58088;51.186;17.130;2023-07-24T03:01:07;8.80;;;2.70;;
70532;SDS011;58088;51.186;17.130;2023-07-24T03:03:34;11.00;;;3.30;;
70532;SDS011;58088;51.186;17.130;2023-07-24T03:06:01;12.30;;;3.00;;
70532;SDS011;58088;51.186;17.130;2023-07-24T03:08:27;13.10;;;3.10;;
70532;SDS011;58088;51.186;17.130;2023-07-24T03:10:53;7.60;;;2.70;;
70532;SDS011;58088;51.186;17.130;2023-07-24T03:13:19;10.30;;;3.20;;
70532;SDS011;58088;51.186;17.130;2023-07-24T03:15:56;11.00;;;3.00;;
70532;SDS011;58088;51.186;17.130;2023-07-24T03:18:24;9.10;;;3.10;;
70532;SDS011;58088;51.186;17.130;2023-07-24T03:20:51;7.60;;;2.80;;
70532;SDS011;58088;51.186;17.130;2023-07-24T03:23:17;12.00;;;3.40;;
70532;SDS011;58088;51.186;17.130;2023-07-24T03:25:44;9.30;;;3.20;;
70532;SDS011;58088;51.186;17.130;2023-07-24T03:28:10;7.60;;;3.10;;
70532;SDS011;58088;51.186;17.130;2023-07-24T03:30:36;7.80;;;3.20;;
70532;SDS011;58088;51.186;17.130;2023-07-24T03:33:02;7.80;;;3.30;;
70532;SDS011;58088;51.186;17.130;2023-07-24T03:35:30;9.20;;;3.10;;
70532;SDS011;58088;51.186;17.130;2023-07-24T03:37:56;11.80;;;2.90;;
70532;SDS011;58088;51.186;17.130;2023-07-24T03:40:23;8.80;;;3.10;;
70532;SDS011;58088;51.186;17.130;2023-07-24T03:42:49;7.00;;;3.50;;
70532;SDS011;58088;51.186;17.130;2023-07-24T03:45:16;7.50;;;3.00;;
70532;SDS011;58088;51.186;17.130;2023-07-24T03:47:43;9.30;;;3.00;;
70532;SDS011;58088;51.186;17.130;2023-07-24T03:50:12;6.60;;;2.50;;
70532;SDS011;58088;51.186;17.130;2023-07-24T03:52:38;9.30;;;3.30;;
70532;SDS011;58088;51.186;17.130;2023-07-24T03:55:06;9.50;;;3.00;;
70532;SDS011;58088;51.186;17.130;2023-07-24T03:57:33;6.50;;;2.70;;
70532;SDS011;58088;51.186;17.130;2023-07-24T04:00:00;8.60;;;3.20;;
70532;SDS011;58088;51.186;17.130;2023-07-24T04:02:26;8.20;;;2.90;;
70532;SDS011;58088;51.186;17.130;2023-07-24T04:04:52;7.70;;;3.20;;
70532;SDS011;58088;51.186;17.130;2023-07-24T04:07:19;6.70;;;2.80;;
70532;SDS011;58088;51.186;17.130;2023-07-24T04:09:45;6.90;;;3.10;;
70532;SDS011;58088;51.186;17.130;2023-07-24T04:12:11;9.10;;;3.10;;
70532;SDS011;58088;51.186;17.130;2023-07-24T04:14:37;9.10;;;3.00;;
70532;SDS011;58088;51.186;17.130;2023-07-24T04:17:03;7.60;;;2.90;;
70532;SDS011;58088;51.186;17.130;2023-07-24T04:19:30;12.10;;;3.20;;
70532;SDS011;58088;51.186;17.130;2023-07-24T04:21:56;10.60;;;3.10;;
70532;SDS011;58088;51.186;17.130;2023-07-24T04:24:22;10.20;;;3.50;;
70532;SDS011;58088;51.186;17.130;2023-07-24T04:26:48;11.20;;;3.20;;
70532;SDS011;58088;51.186;17.130;2023-07-24T04:29:15;9.20;;;3.10;;
70532;SDS011;58088;51.186;17.130;2023-07-24T04:31:41;9.70;;;3.50;;
70532;SDS011;58088;51.186;17.130;2023-07-24T04:34:07;7.40;;;3.10;;
70532;SDS011;58088;51.186;17.130;2023-07-24T04:36:33;8.80;;;3.00;;
70532;SDS011;58088;51.186;17.130;2023-07-24T04:38:59;9.40;;;3.30;;
70532;SDS011;58088;51.186;17.130;2023-07-24T04:41:25;10.20;;;3.20;;
70532;SDS011;58088;51.186;17.130;2023-07-24T04:43:51;7.60;;;3.20;;
70532;SDS011;58088;51.186;17.130;2023-07-24T04:46:17;7.90;;;3.10;;
70532;SDS011;58088;51.186;17.130;2023-07-24T04:48:43;10.60;;;3.30;;
70532;SDS011;58088;51.186;17.130;2023-07-24T04:51:10;8.40;;;3.20;;
70532;SDS011;58088;51.186;17.130;2023-07-24T04:53:36;8.20;;;3.40;;
70532;SDS011;58088;51.186;17.130;2023-07-24T04:56:02;10.10;;;3.50;;
70532;SDS011;58088;51.186;17.130;2023-07-24T04:58:28;7.90;;;3.00;;
70532;SDS011;58088;51.186;17.130;2023-07-24T05:00:54;9.30;;;3.20;;
70532;SDS011;58088;51.186;17.130;2023-07-24T05:03:21;8.70;;;3.30;;
70532;SDS011;58088;51.186;17.130;2023-07-24T05:05:54;8.20;;;3.20;;
70532;SDS011;58088;51.186;17.130;2023-07-24T05:08:22;9.80;;;3.40;;
70532;SDS011;58088;51.186;17.130;2023-07-24T05:10:58;7.60;;;3.10;;
70532;SDS011;58088;51.186;17.130;2023-07-24T05:13:25;11.90;;;3.40;;
70532;SDS011;58088;51.186;17.130;2023-07-24T05:15:52;8.50;;;3.00;;
70532;SDS011;58088;51.186;17.130;2023-07-24T05:18:18;11.80;;;3.40;;
70532;SDS011;58088;51.186;17.130;2023-07-24T05:20:46;10.80;;;3.10;;
70532;SDS011;58088;51.186;17.130;2023-07-24T05:23:14;8.20;;;3.00;;
70532;SDS011;58088;51.186;17.130;2023-07-24T05:25:40;13.40;;;3.50;;
70532;SDS011;58088;51.186;17.130;2023-07-24T05:28:07;7.60;;;3.00;;
70532;SDS011;58088;51.186;17.130;2023-07-24T05:30:33;10.60;;;3.20;;
70532;SDS011;58088;51.186;17.130;2023-07-24T05:33:00;9.20;;;3.00;;
70532;SDS011;58088;51.186;17.130;2023-07-24T05:35:26;8.70;;;3.40;;
70532;SDS011;58088;51.186;17.130;2023-07-24T05:37:53;9.00;;;3.30;;
70532;SDS011;58088;51.186;17.130;2023-07-24T05:40:19;9.40;;;3.50;;
70532;SDS011;58088;51.186;17.130;2023-07-24T05:42:46;8.90;;;3.30;;
70532;SDS011;58088;51.186;17.130;2023-07-24T05:45:13;7.00;;;3.80;;
70532;SDS011;58088;51.186;17.130;2023-07-24T05:47:42;8.60;;;3.20;;
70532;SDS011;58088;51.186;17.130;2023-07-24T05:50:08;10.30;;;3.60;;
70532;SDS011;58088;51.186;17.130;2023-07-24T05:52:35;9.40;;;3.50;;
70532;SDS011;58088;51.186;17.130;2023-07-24T05:55:01;9.20;;;3.50;;
70532;SDS011;58088;51.186;17.130;2023-07-24T05:57:28;9.00;;;3.20;;
70532;SDS011;58088;51.186;17.130;2023-07-24T05:59:55;17.50;;;3.70;;
70532;SDS011;58088;51.186;17.130;2023-07-24T06:02:21;9.20;;;3.50;;
70532;SDS011;58088;51.186;17.130;2023-07-24T06:04:48;8.30;;;3.30;;
70532;SDS011;58088;51.186;17.130;2023-07-24T06:07:14;7.80;;;3.00;;
70532;SDS011;58088;51.186;17.130;2023-07-24T06:09:40;7.70;;;3.10;;
70532;SDS011;58088;51.186;17.130;2023-07-24T06:12:07;10.40;;;3.40;;
70532;SDS011;58088;51.186;17.130;2023-07-24T06:14:33;6.70;;;3.10;;
70532;SDS011;58088;51.186;17.130;2023-07-24T06:16:59;8.80;;;3.00;;
70532;SDS011;58088;51.186;17.130;2023-07-24T06:19:25;8.90;;;3.30;;
70532;SDS011;58088;51.186;17.130;2023-07-24T06:21:51;7.20;;;3.20;;
70532;SDS011;58088;51.186;17.130;2023-07-24T06:24:18;9.50;;;3.50;;
70532;SDS011;58088;51.186;17.130;2023-07-24T06:26:44;8.40;;;3.50;;
70532;SDS011;58088;51.186;17.130;2023-07-24T06:29:11;8.90;;;3.20;;
70532;SDS011;58088;51.186;17.130;2023-07-24T06:31:37;7.60;;;3.20;;
70532;SDS011;58088;51.186;17.130;2023-07-24T06:34:03;7.00;;;3.30;;
70532;SDS011;58088;51.186;17.130;2023-07-24T06:36:29;6.90;;;3.50;;
70532;SDS011;58088;51.186;17.130;2023-07-24T06:38:55;6.80;;;3.30;;
70532;SDS011;58088;51.186;17.130;2023-07-24T06:41:22;8.30;;;3.10;;
70532;SDS011;58088;51.186;17.130;2023-07-24T06:43:49;10.40;;;3.70;;
70532;SDS011;58088;51.186;17.130;2023-07-24T06:46:15;9.30;;;3.20;;
70532;SDS011;58088;51.186;17.130;2023-07-24T06:48:42;8.60;;;3.30;;
70532;SDS011;58088;51.186;17.130;2023-07-24T06:51:08;8.70;;;3.40;;
70532;SDS011;58088;51.186;17.130;2023-07-24T06:53:34;8.50;;;3.90;;
70532;SDS011;58088;51.186;17.130;2023-07-24T06:56:01;6.90;;;3.30;;
70532;SDS011;58088;51.186;17.130;2023-07-24T06:58:27;7.20;;;3.10;;
70532;SDS011;58088;51.186;17.130;2023-07-24T07:00:54;7.50;;;3.50;;
70532;SDS011;58088;51.186;17.130;2023-07-24T07:03:20;7.20;;;3.10;;
70532;SDS011;58088;51.186;17.130;2023-07-24T07:05:46;8.50;;;3.70;;
70532;SDS011;58088;51.186;17.130;2023-07-24T07:08:12;6.90;;;3.30;;
70532;SDS011;58088;51.186;17.130;2023-07-24T07:10:38;8.40;;;3.10;;
70532;SDS011;58088;51.186;17.130;2023-07-24T07:13:10;9.00;;;3.00;;
70532;SDS011;58088;51.186;17.130;2023-07-24T07:15:36;8.60;;;3.20;;
70532;SDS011;58088;51.186;17.130;2023-07-24T07:18:02;10.20;;;3.70;;
70532;SDS011;58088;51.186;17.130;2023-07-24T07:20:29;7.70;;;3.20;;
70532;SDS011;58088;51.186;17.130;2023-07-24T07:22:55;8.70;;;3.60;;
70532;SDS011;58088;51.186;17.130;2023-07-24T07:25:21;7.90;;;3.50;;
70532;SDS011;58088;51.186;17.130;2023-07-24T07:27:47;9.00;;;3.00;;
70532;SDS011;58088;51.186;17.130;2023-07-24T07:30:13;8.40;;;3.40;;
70532;SDS011;58088;51.186;17.130;2023-07-24T07:32:39;7.90;;;3.20;;
70532;SDS011;58088;51.186;17.130;2023-07-24T07:35:06;6.90;;;3.20;;
70532;SDS011;58088;51.186;17.130;2023-07-24T07:37:32;8.80;;;3.90;;
70532;SDS011;58088;51.186;17.130;2023-07-24T07:39:58;9.30;;;3.50;;
70532;SDS011;58088;51.186;17.130;2023-07-24T07:42:24;6.60;;;3.30;;
70532;SDS011;58088;51.186;17.130;2023-07-24T07:44:50;9.60;;;3.40;;
70532;SDS011;58088;51.186;17.130;2023-07-24T07:47:17;6.70;;;3.10;;
70532;SDS011;58088;51.186;17.130;2023-07-24T07:49:43;7.40;;;3.50;;
70532;SDS011;58088;51.186;17.130;2023-07-24T07:52:09;6.90;;;3.20;;
70532;SDS011;58088;51.186;17.130;2023-07-24T07:54:35;7.90;;;3.00;;
70532;SDS011;58088;51.186;17.130;2023-07-24T07:57:01;6.60;;;3.40;;
70532;SDS011;58088;51.186;17.130;2023-07-24T07:59:29;7.80;;;3.40;;
70532;SDS011;58088;51.186;17.130;2023-07-24T08:01:56;7.30;;;3.90;;
70532;SDS011;58088;51.186;17.130;2023-07-24T08:04:21;6.30;;;3.30;;
70532;SDS011;58088;51.186;17.130;2023-07-24T08:06:48;6.80;;;3.90;;
70532;SDS011;58088;51.186;17.130;2023-07-24T08:09:13;7.20;;;3.30;;
70532;SDS011;58088;51.186;17.130;2023-07-24T08:11:40;5.90;;;3.30;;
70532;SDS011;58088;51.186;17.130;2023-07-24T08:14:06;8.10;;;3.70;;
70532;SDS011;58088;51.186;17.130;2023-07-24T08:16:33;7.80;;;3.10;;
70532;SDS011;58088;51.186;17.130;2023-07-24T08:18:59;7.80;;;3.50;;
70532;SDS011;58088;51.186;17.130;2023-07-24T08:21:25;6.10;;;3.90;;
70532;SDS011;58088;51.186;17.130;2023-07-24T08:23:51;7.40;;;3.80;;
70532;SDS011;58088;51.186;17.130;2023-07-24T08:26:18;7.30;;;3.50;;
70532;SDS011;58088;51.186;17.130;2023-07-24T08:28:44;8.20;;;4.20;;
70532;SDS011;58088;51.186;17.130;2023-07-24T08:31:10;8.20;;;3.90;;
70532;SDS011;58088;51.186;17.130;2023-07-24T08:33:36;8.10;;;4.00;;
70532;SDS011;58088;51.186;17.130;2023-07-24T08:36:07;6.40;;;3.80;;
70532;SDS011;58088;51.186;17.130;2023-07-24T08:38:34;7.30;;;3.80;;
70532;SDS011;58088;51.186;17.130;2023-07-24T08:41:06;7.20;;;3.50;;
70532;SDS011;58088;51.186;17.130;2023-07-24T08:43:35;8.30;;;4.20;;
70532;SDS011;58088;51.186;17.130;2023-07-24T08:46:03;6.90;;;3.70;;
70532;SDS011;58088;51.186;17.130;2023-07-24T08:48:35;7.30;;;3.70;;
70532;SDS011;58088;51.186;17.130;2023-07-24T08:51:08;7.70;;;4.00;;
70532;SDS011;58088;51.186;17.130;2023-07-24T08:53:38;7.20;;;4.20;;
70532;SDS011;58088;51.186;17.130;2023-07-24T08:56:09;8.80;;;3.80;;
70532;SDS011;58088;51.186;17.130;2023-07-24T08:58:38;9.30;;;4.50;;
70532;SDS011;58088;51.186;17.130;2023-07-24T09:01:08;7.80;;;4.10;;
70532;SDS011;58088;51.186;17.130;2023-07-24T09:03:35;6.60;;;3.90;;
70532;SDS011;58088;51.186;17.130;2023-07-24T09:06:02;8.30;;;4.30;;
70532;SDS011;58088;51.186;17.130;2023-07-24T09:08:36;10.00;;;4.00;;
70532;SDS011;58088;51.186;17.130;2023-07-24T09:11:05;9.00;;;4.30;;
70532;SDS011;58088;51.186;17.130;2023-07-24T09:13:33;7.00;;;3.80;;
70532;SDS011;58088;51.186;17.130;2023-07-24T09:16:01;8.00;;;4.00;;
70532;SDS011;58088;51.186;17.130;2023-07-24T09:18:41;8.70;;;3.80;;
70532;SDS011;58088;51.186;17.130;2023-07-24T09:21:09;8.70;;;3.80;;
70532;SDS011;58088;51.186;17.130;2023-07-24T09:23:39;7.10;;;3.50;;
70532;SDS011;58088;51.186;17.130;2023-07-24T09:26:09;5.90;;;3.00;;
70532;SDS011;58088;51.186;17.130;2023-07-24T09:28:35;7.00;;;3.50;;
70532;SDS011;58088;51.186;17.130;2023-07-24T09:31:02;23.00;;;4.30;;
70532;SDS011;58088;51.186;17.130;2023-07-24T09:33:41;7.40;;;3.70;;
70532;SDS011;58088;51.186;17.130;2023-07-24T09:36:10;7.20;;;3.50;;
70532;SDS011;58088;51.186;17.130;2023-07-24T09:38:37;5.90;;;3.30;;
70532;SDS011;58088;51.186;17.130;2023-07-24T09:41:05;8.30;;;3.10;;
70532;SDS011;58088;51.186;17.130;2023-07-24T09:43:33;7.40;;;3.40;;
70532;SDS011;58088;51.186;17.130;2023-07-24T09:46:07;8.60;;;4.40;;
70532;SDS011;58088;51.186;17.130;2023-07-24T09:48:36;6.30;;;3.40;;
70532;SDS011;58088;51.186;17.130;2023-07-24T09:51:08;9.20;;;4.00;;
70532;SDS011;58088;51.186;17.130;2023-07-24T09:53:47;7.70;;;4.00;;
70532;SDS011;58088;51.186;17.130;2023-07-24T09:56:17;7.90;;;4.20;;
70532;SDS011;58088;51.186;17.130;2023-07-24T09:58:44;11.60;;;3.80;;
70532;SDS011;58088;51.186;17.130;2023-07-24T10:01:10;8.80;;;4.20;;
70532;SDS011;58088;51.186;17.130;2023-07-24T10:03:46;8.50;;;4.10;;
70532;SDS011;58088;51.186;17.130;2023-07-24T10:06:17;6.90;;;3.90;;
70532;SDS011;58088;51.186;17.130;2023-07-24T10:08:46;7.60;;;4.00;;
70532;SDS011;58088;51.186;17.130;2023-07-24T10:11:14;7.40;;;3.40;;
70532;SDS011;58088;51.186;17.130;2023-07-24T10:13:41;8.50;;;3.80;;
70532;SDS011;58088;51.186;17.130;2023-07-24T10:16:08;7.50;;;3.30;;
70532;SDS011;58088;51.186;17.130;2023-07-24T10:18:43;7.60;;;4.00;;
70532;SDS011;58088;51.186;17.130;2023-07-24T10:21:11;7.50;;;3.80;;
70532;SDS011;58088;51.186;17.130;2023-07-24T10:23:44;7.60;;;3.60;;
70532;SDS011;58088;51.186;17.130;2023-07-24T10:26:12;6.70;;;3.70;;
70532;SDS011;58088;51.186;17.130;2023-07-24T10:28:41;6.70;;;3.70;;
70532;SDS011;58088;51.186;17.130;2023-07-24T10:33:46;6.90;;;4.10;;
70532;SDS011;58088;51.186;17.130;2023-07-24T10:36:17;9.40;;;4.30;;
70532;SDS011;58088;51.186;17.130;2023-07-24T10:38:46;7.50;;;4.20;;
70532;SDS011;58088;51.186;17.130;2023-07-24T10:41:17;9.10;;;4.40;;
70532;SDS011;58088;51.186;17.130;2023-07-24T10:43:49;8.20;;;4.10;;
70532;SDS011;58088;51.186;17.130;2023-07-24T10:46:19;7.40;;;4.10;;
70532;SDS011;58088;51.186;17.130;2023-07-24T10:48:48;6.80;;;3.20;;
70532;SDS011;58088;51.186;17.130;2023-07-24T10:51:16;7.50;;;4.10;;
70532;SDS011;58088;51.186;17.130;2023-07-24T10:53:48;7.80;;;4.20;;
70532;SDS011;58088;51.186;17.130;2023-07-24T10:56:16;6.60;;;4.00;;
70532;SDS011;58088;51.186;17.130;2023-07-24T10:58:43;8.00;;;4.00;;
70532;SDS011;58088;51.186;17.130;2023-07-24T11:01:09;13.10;;;4.90;;
70532;SDS011;58088;51.186;17.130;2023-07-24T11:03:41;7.60;;;4.30;;
70532;SDS011;58088;51.186;17.130;2023-07-24T11:06:18;7.40;;;4.10;;
70532;SDS011;58088;51.186;17.130;2023-07-24T11:08:52;7.60;;;4.20;;
70532;SDS011;58088;51.186;17.130;2023-07-24T11:11:19;11.50;;;4.00;;
70532;SDS011;58088;51.186;17.130;2023-07-24T11:13:46;9.50;;;4.30;;
70532;SDS011;58088;51.186;17.130;2023-07-24T11:16:12;10.10;;;4.60;;
70532;SDS011;58088;51.186;17.130;2023-07-24T11:18:49;8.60;;;4.40;;
70532;SDS011;58088;51.186;17.130;2023-07-24T11:21:18;7.90;;;4.20;;
70532;SDS011;58088;51.186;17.130;2023-07-24T11:23:53;7.00;;;4.20;;
70532;SDS011;58088;51.186;17.130;2023-07-24T11:26:22;8.20;;;4.10;;
70532;SDS011;58088;51.186;17.130;2023-07-24T11:28:50;8.30;;;4.40;;
70532;SDS011;58088;51.186;17.130;2023-07-24T11:31:17;8.30;;;4.30;;
70532;SDS011;58088;51.186;17.130;2023-07-24T11:33:48;8.80;;;4.20;;
70532;SDS011;58088;51.186;17.130;2023-07-24T11:36:15;9.20;;;4.20;;
70532;SDS011;58088;51.186;17.130;2023-07-24T11:38:45;8.20;;;4.20;;
70532;SDS011;58088;51.186;17.130;2023-07-24T11:41:12;8.40;;;4.40;;
70532;SDS011;58088;51.186;17.130;2023-07-24T11:43:46;8.00;;;4.10;;
70532;SDS011;58088;51.186;17.130;2023-07-24T11:46:22;7.20;;;4.00;;
70532;SDS011;58088;51.186;17.130;2023-07-24T11:48:53;8.30;;;4.30;;
70532;SDS011;58088;51.186;17.130;2023-07-24T11:51:23;11.20;;;4.20;;
70532;SDS011;58088;51.186;17.130;2023-07-24T11:53:51;8.50;;;4.30;;
70532;SDS011;58088;51.186;17.130;2023-07-24T11:56:19;8.40;;;4.10;;
70532;SDS011;58088;51.186;17.130;2023-07-24T11:58:45;9.30;;;4.40;;
70532;SDS011;58088;51.186;17.130;2023-07-24T12:01:14;8.10;;;4.30;;
70532;SDS011;58088;51.186;17.130;2023-07-24T12:03:41;10.00;;;4.50;;
70532;SDS011;58088;51.186;17.130;2023-07-24T12:06:16;8.20;;;4.00;;
70532;SDS011;58088;51.186;17.130;2023-07-24T12:08:42;9.00;;;4.60;;
70532;SDS011;58088;51.186;17.130;2023-07-24T12:11:18;7.40;;;4.00;;
70532;SDS011;58088;51.186;17.130;2023-07-24T12:13:44;8.00;;;4.40;;
70532;SDS011;58088;51.186;17.130;2023-07-24T12:16:10;7.70;;;4.40;;
70532;SDS011;58088;51.186;17.130;2023-07-24T12:18:36;7.50;;;3.80;;
70532;SDS011;58088;51.186;17.130;2023-07-24T12:21:02;8.00;;;4.20;;
70532;SDS011;58088;51.186;17.130;2023-07-24T12:23:28;8.70;;;4.60;;
70532;SDS011;58088;51.186;17.130;2023-07-24T12:25:55;6.80;;;4.00;;
70532;SDS011;58088;51.186;17.130;2023-07-24T12:28:21;9.30;;;4.70;;
70532;SDS011;58088;51.186;17.130;2023-07-24T12:30:47;8.30;;;4.50;;
70532;SDS011;58088;51.186;17.130;2023-07-24T12:33:14;7.90;;;4.40;;
70532;SDS011;58088;51.186;17.130;2023-07-24T12:35:40;7.90;;;4.40;;
70532;SDS011;58088;51.186;17.130;2023-07-24T12:38:07;8.90;;;4.80;;
70532;SDS011;58088;51.186;17.130;2023-07-24T12:40:33;8.50;;;4.90;;
70532;SDS011;58088;51.186;17.130;2023-07-24T12:42:59;10.10;;;4.80;;
70532;SDS011;58088;51.186;17.130;2023-07-24T12:45:25;8.80;;;5.10;;
70532;SDS011;58088;51.186;17.130;2023-07-24T12:47:51;12.30;;;5.10;;
70532;SDS011;58088;51.186;17.130;2023-07-24T12:50:18;10.10;;;4.90;;
70532;SDS011;58088;51.186;17.130;2023-07-24T12:52:44;9.30;;;5.00;;
70532;SDS011;58088;51.186;17.130;2023-07-24T12:55:11;10.00;;;5.00;;
70532;SDS011;58088;51.186;17.130;2023-07-24T12:57:37;9.10;;;4.70;;
70532;SDS011;58088;51.186;17.130;2023-07-24T13:00:04;8.90;;;5.60;;
70532;SDS011;58088;51.186;17.130;2023-07-24T13:02:31;10.00;;;5.60;;
70532;SDS011;58088;51.186;17.130;2023-07-24T13:04:58;9.10;;;5.30;;
70532;SDS011;58088;51.186;17.130;2023-07-24T13:07:24;11.10;;;5.90;;
70532;SDS011;58088;51.186;17.130;2023-07-24T13:09:51;9.90;;;5.40;;
70532;SDS011;58088;51.186;17.130;2023-07-24T13:12:17;9.80;;;5.00;;
70532;SDS011;58088;51.186;17.130;2023-07-24T13:14:43;10.50;;;5.70;;
70532;SDS011;58088;51.186;17.130;2023-07-24T13:17:10;10.70;;;5.70;;
70532;SDS011;58088;51.186;17.130;2023-07-24T13:19:36;9.80;;;5.20;;
70532;SDS011;58088;51.186;17.130;2023-07-24T13:22:02;10.80;;;5.80;;
70532;SDS011;58088;51.186;17.130;2023-07-24T13:24:29;12.20;;;6.00;;
70532;SDS011;58088;51.186;17.130;2023-07-24T13:26:55;10.10;;;5.90;;
70532;SDS011;58088;51.186;17.130;2023-07-24T13:29:22;12.30;;;5.90;;
70532;SDS011;58088;51.186;17.130;2023-07-24T13:31:50;12.80;;;5.80;;
70532;SDS011;58088;51.186;17.130;2023-07-24T13:34:18;9.80;;;5.70;;
70532;SDS011;58088;51.186;17.130;2023-07-24T13:36:46;10.30;;;5.60;;
70532;SDS011;58088;51.186;17.130;2023-07-24T13:39:15;8.90;;;5.10;;
70532;SDS011;58088;51.186;17.130;2023-07-24T13:41:43;16.30;;;5.90;;
70532;SDS011;58088;51.186;17.130;2023-07-24T13:44:12;9.20;;;5.80;;
70532;SDS011;58088;51.186;17.130;2023-07-24T13:46:38;9.10;;;5.40;;
70532;SDS011;58088;51.186;17.130;2023-07-24T13:49:05;8.40;;;5.00;;
70532;SDS011;58088;51.186;17.130;2023-07-24T13:51:31;9.70;;;5.60;;
70532;SDS011;58088;51.186;17.130;2023-07-24T13:53:57;10.70;;;5.80;;
70532;SDS011;58088;51.186;17.130;2023-07-24T13:56:25;10.80;;;5.10;;
70532;SDS011;58088;51.186;17.130;2023-07-24T13:58:53;9.90;;;5.10;;
70532;SDS011;58088;51.186;17.130;2023-07-24T14:01:21;10.20;;;5.00;;
70532;SDS011;58088;51.186;17.130;2023-07-24T14:03:48;9.60;;;5.30;;
70532;SDS011;58088;51.186;17.130;2023-07-24T14:06:15;10.10;;;5.30;;
70532;SDS011;58088;51.186;17.130;2023-07-24T14:08:41;9.90;;;5.20;;
70532;SDS011;58088;51.186;17.130;2023-07-24T14:11:07;10.00;;;4.80;;
70532;SDS011;58088;51.186;17.130;2023-07-24T14:13:33;10.10;;;5.00;;
70532;SDS011;58088;51.186;17.130;2023-07-24T14:16:00;10.00;;;5.10;;
70532;SDS011;58088;51.186;17.130;2023-07-24T14:18:26;9.60;;;5.10;;
70532;SDS011;58088;51.186;17.130;2023-07-24T14:20:53;9.10;;;4.90;;
70532;SDS011;58088;51.186;17.130;2023-07-24T14:23:21;10.50;;;5.40;;
70532;SDS011;58088;51.186;17.130;2023-07-24T14:25:48;7.90;;;4.50;;
70532;SDS011;58088;51.186;17.130;2023-07-24T14:28:14;11.50;;;5.70;;
70532;SDS011;58088;51.186;17.130;2023-07-24T14:30:41;9.40;;;5.30;;
70532;SDS011;58088;51.186;17.130;2023-07-24T14:33:08;9.90;;;5.30;;
70532;SDS011;58088;51.186;17.130;2023-07-24T14:35:34;10.20;;;5.20;;
70532;SDS011;58088;51.186;17.130;2023-07-24T14:38:01;10.60;;;5.30;;
70532;SDS011;58088;51.186;17.130;2023-07-24T14:40:28;10.30;;;4.80;;
70532;SDS011;58088;51.186;17.130;2023-07-24T14:42:54;10.90;;;5.30;;